sensor_id;sensor_type;location;lat;lon;timestamp;temperature;humidity
73360;DHT22;63092;43.582;19.528;2024-02-04T00:01:57;4.30;99.90
73360;DHT22;63092;43.582;19.528;2024-02-04T00:04:23;4.20;99.90
73360;DHT22;63092;43.582;19.528;2024-02-04T00:06:49;4.20;99.90
73360;DHT22;63092;43.582;19.528;2024-02-04T00:09:15;4.20;99.90
73360;DHT22;63092;43.582;19.528;2024-02-04T00:11:41;4.20;99.90
73360;DHT22;63092;43.582;19.528;2024-02-04T00:14:07;4.30;99.90
73360;DHT22;63092;43.582;19.528;2024-02-04T00:16:33;4.20;99.90
73360;DHT22;63092;43.582;19.528;2024-02-04T00:18:59;4.30;99.90
73360;DHT22;63092;43.582;19.528;2024-02-04T00:21:24;4.20;99.90
73360;DHT22;63092;43.582;19.528;2024-02-04T00:23:50;4.20;99.90
73360;DHT22;63092;43.582;19.528;2024-02-04T00:26:16;4.20;99.90
73360;DHT22;63092;43.582;19.528;2024-02-04T00:28:41;4.20;99.90
73360;DHT22;63092;43.582;19.528;2024-02-04T00:31:08;4.10;99.90
73360;DHT22;63092;43.582;19.528;2024-02-04T00:33:34;4.10;99.90
73360;DHT22;63092;43.582;19.528;2024-02-04T00:36:00;4.10;99.90
73360;DHT22;63092;43.582;19.528;2024-02-04T00:38:25;4.10;99.90
73360;DHT22;63092;43.582;19.528;2024-02-04T00:40:51;4.10;99.90
73360;DHT22;63092;43.582;19.528;2024-02-04T00:43:18;4.10;99.90
73360;DHT22;63092;43.582;19.528;2024-02-04T00:45:44;4.10;99.90
73360;DHT22;63092;43.582;19.528;2024-02-04T00:48:09;4.10;99.90
73360;DHT22;63092;43.582;19.528;2024-02-04T00:50:35;4.00;99.90
73360;DHT22;63092;43.582;19.528;2024-02-04T00:53:01;4.00;99.90
73360;DHT22;63092;43.582;19.528;2024-02-04T00:55:26;3.80;99.90
73360;DHT22;63092;43.582;19.528;2024-02-04T00:57:52;3.70;99.90
73360;DHT22;63092;43.582;19.528;2024-02-04T01:00:18;3.50;99.90
73360;DHT22;63092;43.582;19.528;2024-02-04T01:02:44;3.40;99.90
73360;DHT22;63092;43.582;19.528;2024-02-04T01:05:10;3.40;99.90
73360;DHT22;63092;43.582;19.528;2024-02-04T01:07:35;3.50;99.90
73360;DHT22;63092;43.582;19.528;2024-02-04T01:10:01;3.40;99.90
73360;DHT22;63092;43.582;19.528;2024-02-04T01:12:27;3.40;99.90
73360;DHT22;63092;43.582;19.528;2024-02-04T01:14:52;3.50;99.90
73360;DHT22;63092;43.582;19.528;2024-02-04T01:17:18;3.60;99.90
73360;DHT22;63092;43.582;19.528;2024-02-04T01:19:44;3.60;99.90
73360;DHT22;63092;43.582;19.528;2024-02-04T01:22:09;3.70;99.90
73360;DHT22;63092;43.582;19.528;2024-02-04T01:24:35;3.70;99.90
73360;DHT22;63092;43.582;19.528;2024-02-04T01:27:01;3.60;99.90
73360;DHT22;63092;43.582;19.528;2024-02-04T01:29:27;3.60;99.90
73360;DHT22;63092;43.582;19.528;2024-02-04T01:31:52;3.60;99.90
73360;DHT22;63092;43.582;19.528;2024-02-04T01:34:18;3.50;99.90
73360;DHT22;63092;43.582;19.528;2024-02-04T01:36:44;3.40;99.90
73360;DHT22;63092;43.582;19.528;2024-02-04T01:39:09;3.30;99.90
73360;DHT22;63092;43.582;19.528;2024-02-04T01:41:36;3.30;99.90
73360;DHT22;63092;43.582;19.528;2024-02-04T01:44:01;3.40;99.90
73360;DHT22;63092;43.582;19.528;2024-02-04T01:46:28;3.50;99.90
73360;DHT22;63092;43.582;19.528;2024-02-04T01:48:54;3.50;99.90
73360;DHT22;63092;43.582;19.528;2024-02-04T01:51:20;3.60;99.90
73360;DHT22;63092;43.582;19.528;2024-02-04T01:53:47;3.60;99.90
73360;DHT22;63092;43.582;19.528;2024-02-04T01:56:14;3.60;99.90
73360;DHT22;63092;43.582;19.528;2024-02-04T01:58:42;3.70;99.90
73360;DHT22;63092;43.582;19.528;2024-02-04T02:01:09;3.70;99.90
73360;DHT22;63092;43.582;19.528;2024-02-04T02:03:36;3.60;99.90
73360;DHT22;63092;43.582;19.528;2024-02-04T02:06:03;3.60;99.90
73360;DHT22;63092;43.582;19.528;2024-02-04T02:08:29;3.70;99.90
73360;DHT22;63092;43.582;19.528;2024-02-04T02:11:07;3.70;99.90
73360;DHT22;63092;43.582;19.528;2024-02-04T02:13:36;3.70;99.90
73360;DHT22;63092;43.582;19.528;2024-02-04T02:16:18;3.60;99.90
73360;DHT22;63092;43.582;19.528;2024-02-04T02:18:54;3.60;99.90
73360;DHT22;63092;43.582;19.528;2024-02-04T02:26:50;3.60;99.90
73360;DHT22;63092;43.582;19.528;2024-02-04T02:29:16;3.50;99.90
73360;DHT22;63092;43.582;19.528;2024-02-04T02:31:42;3.50;99.90
73360;DHT22;63092;43.582;19.528;2024-02-04T02:34:09;3.50;99.90
73360;DHT22;63092;43.582;19.528;2024-02-04T02:37:07;3.50;99.90
73360;DHT22;63092;43.582;19.528;2024-02-04T02:40:05;3.40;99.90
73360;DHT22;63092;43.582;19.528;2024-02-04T02:42:33;3.50;99.90
73360;DHT22;63092;43.582;19.528;2024-02-04T02:45:01;3.50;99.90
73360;DHT22;63092;43.582;19.528;2024-02-04T02:47:28;3.40;99.90
73360;DHT22;63092;43.582;19.528;2024-02-04T02:49:54;3.40;99.90
73360;DHT22;63092;43.582;19.528;2024-02-04T02:52:21;3.40;99.90
73360;DHT22;63092;43.582;19.528;2024-02-04T02:54:47;3.50;99.90
73360;DHT22;63092;43.582;19.528;2024-02-04T02:57:12;3.50;99.90
73360;DHT22;63092;43.582;19.528;2024-02-04T02:59:38;3.50;99.90
73360;DHT22;63092;43.582;19.528;2024-02-04T03:02:04;3.50;99.90
73360;DHT22;63092;43.582;19.528;2024-02-04T03:04:30;3.50;99.90
73360;DHT22;63092;43.582;19.528;2024-02-04T03:06:55;3.50;99.90
73360;DHT22;63092;43.582;19.528;2024-02-04T03:09:22;3.40;99.90
73360;DHT22;63092;43.582;19.528;2024-02-04T03:11:47;3.50;99.90
73360;DHT22;63092;43.582;19.528;2024-02-04T03:14:18;3.50;99.90
73360;DHT22;63092;43.582;19.528;2024-02-04T03:16:44;3.50;99.90
73360;DHT22;63092;43.582;19.528;2024-02-04T03:19:10;3.60;99.90
73360;DHT22;63092;43.582;19.528;2024-02-04T03:21:36;3.60;99.90
73360;DHT22;63092;43.582;19.528;2024-02-04T03:24:02;3.60;99.90
73360;DHT22;63092;43.582;19.528;2024-02-04T03:26:27;3.60;99.90
73360;DHT22;63092;43.582;19.528;2024-02-04T03:28:53;3.60;99.90
73360;DHT22;63092;43.582;19.528;2024-02-04T03:31:22;3.50;99.90
73360;DHT22;63092;43.582;19.528;2024-02-04T03:33:48;3.50;99.90
73360;DHT22;63092;43.582;19.528;2024-02-04T03:36:21;3.50;99.90
73360;DHT22;63092;43.582;19.528;2024-02-04T03:38:49;3.50;99.90
73360;DHT22;63092;43.582;19.528;2024-02-04T03:41:15;3.50;99.90
73360;DHT22;63092;43.582;19.528;2024-02-04T03:43:41;3.50;99.90
73360;DHT22;63092;43.582;19.528;2024-02-04T03:46:07;3.60;99.90
73360;DHT22;63092;43.582;19.528;2024-02-04T03:48:32;3.60;99.90
73360;DHT22;63092;43.582;19.528;2024-02-04T03:50:59;3.60;99.90
73360;DHT22;63092;43.582;19.528;2024-02-04T03:53:25;3.60;99.90
73360;DHT22;63092;43.582;19.528;2024-02-04T03:55:51;3.60;99.90
73360;DHT22;63092;43.582;19.528;2024-02-04T03:58:19;3.60;99.90
73360;DHT22;63092;43.582;19.528;2024-02-04T04:00:45;3.60;99.90
73360;DHT22;63092;43.582;19.528;2024-02-04T04:03:11;3.60;99.90
73360;DHT22;63092;43.582;19.528;2024-02-04T04:05:36;3.60;99.90
73360;DHT22;63092;43.582;19.528;2024-02-04T04:08:02;3.60;99.90
73360;DHT22;63092;43.582;19.528;2024-02-04T04:10:28;3.60;99.90
73360;DHT22;63092;43.582;19.528;2024-02-04T04:12:53;3.50;99.90
73360;DHT22;63092;43.582;19.528;2024-02-04T04:15:19;3.60;99.90
73360;DHT22;63092;43.582;19.528;2024-02-04T04:17:45;3.50;99.90
73360;DHT22;63092;43.582;19.528;2024-02-04T04:20:11;3.50;99.90
73360;DHT22;63092;43.582;19.528;2024-02-04T04:22:40;3.50;99.90
73360;DHT22;63092;43.582;19.528;2024-02-04T04:25:06;3.50;99.90
73360;DHT22;63092;43.582;19.528;2024-02-04T04:27:33;3.40;99.90
73360;DHT22;63092;43.582;19.528;2024-02-04T04:29:58;3.40;99.90
73360;DHT22;63092;43.582;19.528;2024-02-04T04:32:24;3.40;99.90
73360;DHT22;63092;43.582;19.528;2024-02-04T04:34:50;3.50;99.90
73360;DHT22;63092;43.582;19.528;2024-02-04T04:37:16;3.40;99.90
73360;DHT22;63092;43.582;19.528;2024-02-04T04:39:41;3.50;99.90
73360;DHT22;63092;43.582;19.528;2024-02-04T04:42:07;3.40;99.90
73360;DHT22;63092;43.582;19.528;2024-02-04T04:44:33;3.20;99.90
73360;DHT22;63092;43.582;19.528;2024-02-04T04:46:58;3.20;99.90
73360;DHT22;63092;43.582;19.528;2024-02-04T04:49:24;3.20;99.90
73360;DHT22;63092;43.582;19.528;2024-02-04T04:51:50;3.10;99.90
73360;DHT22;63092;43.582;19.528;2024-02-04T04:54:16;3.20;99.90
73360;DHT22;63092;43.582;19.528;2024-02-04T04:56:41;3.00;99.90
73360;DHT22;63092;43.582;19.528;2024-02-04T04:59:08;2.90;99.90
73360;DHT22;63092;43.582;19.528;2024-02-04T05:01:34;2.70;99.90
73360;DHT22;63092;43.582;19.528;2024-02-04T05:04:00;2.70;99.90
73360;DHT22;63092;43.582;19.528;2024-02-04T05:06:26;2.70;99.90
73360;DHT22;63092;43.582;19.528;2024-02-04T05:08:52;2.80;99.90
73360;DHT22;63092;43.582;19.528;2024-02-04T05:11:18;2.80;99.90
73360;DHT22;63092;43.582;19.528;2024-02-04T05:13:44;2.70;99.90
73360;DHT22;63092;43.582;19.528;2024-02-04T05:16:10;2.60;99.90
73360;DHT22;63092;43.582;19.528;2024-02-04T05:18:35;2.60;99.90
73360;DHT22;63092;43.582;19.528;2024-02-04T05:21:02;2.60;99.90
73360;DHT22;63092;43.582;19.528;2024-02-04T05:23:28;2.70;99.90
73360;DHT22;63092;43.582;19.528;2024-02-04T05:25:54;2.70;99.90
73360;DHT22;63092;43.582;19.528;2024-02-04T05:28:20;2.70;99.90
73360;DHT22;63092;43.582;19.528;2024-02-04T05:30:45;2.70;99.90
73360;DHT22;63092;43.582;19.528;2024-02-04T05:33:14;2.80;99.90
73360;DHT22;63092;43.582;19.528;2024-02-04T05:35:41;2.90;99.90
73360;DHT22;63092;43.582;19.528;2024-02-04T05:38:09;2.90;99.90
73360;DHT22;63092;43.582;19.528;2024-02-04T05:40:35;2.80;99.90
73360;DHT22;63092;43.582;19.528;2024-02-04T05:43:00;2.70;99.90
73360;DHT22;63092;43.582;19.528;2024-02-04T05:45:32;2.60;99.90
73360;DHT22;63092;43.582;19.528;2024-02-04T05:47:57;2.60;99.90
73360;DHT22;63092;43.582;19.528;2024-02-04T05:50:23;2.50;99.90
73360;DHT22;63092;43.582;19.528;2024-02-04T05:52:49;2.60;99.90
73360;DHT22;63092;43.582;19.528;2024-02-04T05:55:15;2.60;99.90
73360;DHT22;63092;43.582;19.528;2024-02-04T05:57:40;2.70;99.90
73360;DHT22;63092;43.582;19.528;2024-02-04T06:00:10;2.70;99.90
73360;DHT22;63092;43.582;19.528;2024-02-04T06:02:36;2.80;99.90
73360;DHT22;63092;43.582;19.528;2024-02-04T06:05:02;2.80;99.90
73360;DHT22;63092;43.582;19.528;2024-02-04T06:07:28;2.80;99.90
73360;DHT22;63092;43.582;19.528;2024-02-04T06:09:54;2.80;99.90
73360;DHT22;63092;43.582;19.528;2024-02-04T06:12:25;2.70;99.90
73360;DHT22;63092;43.582;19.528;2024-02-04T06:14:50;2.60;99.90
73360;DHT22;63092;43.582;19.528;2024-02-04T06:17:16;2.60;99.90
73360;DHT22;63092;43.582;19.528;2024-02-04T06:19:42;2.40;99.90
73360;DHT22;63092;43.582;19.528;2024-02-04T06:22:07;2.40;99.90
73360;DHT22;63092;43.582;19.528;2024-02-04T06:24:33;2.20;99.90
73360;DHT22;63092;43.582;19.528;2024-02-04T06:26:59;2.30;99.90
73360;DHT22;63092;43.582;19.528;2024-02-04T06:29:25;2.40;99.90
73360;DHT22;63092;43.582;19.528;2024-02-04T06:31:51;2.50;99.90
73360;DHT22;63092;43.582;19.528;2024-02-04T06:34:16;2.60;99.90
73360;DHT22;63092;43.582;19.528;2024-02-04T06:36:43;2.60;99.90
73360;DHT22;63092;43.582;19.528;2024-02-04T06:39:09;2.70;99.90
73360;DHT22;63092;43.582;19.528;2024-02-04T06:41:36;2.70;99.90
73360;DHT22;63092;43.582;19.528;2024-02-04T06:44:05;2.70;99.90
73360;DHT22;63092;43.582;19.528;2024-02-04T06:46:31;2.70;99.90
73360;DHT22;63092;43.582;19.528;2024-02-04T06:48:57;2.70;99.90
73360;DHT22;63092;43.582;19.528;2024-02-04T06:51:23;2.70;99.90
73360;DHT22;63092;43.582;19.528;2024-02-04T06:53:48;2.80;99.90
73360;DHT22;63092;43.582;19.528;2024-02-04T06:56:14;2.80;99.90
73360;DHT22;63092;43.582;19.528;2024-02-04T06:58:41;2.90;99.90
73360;DHT22;63092;43.582;19.528;2024-02-04T07:01:07;2.90;99.90
73360;DHT22;63092;43.582;19.528;2024-02-04T07:03:33;2.90;99.90
73360;DHT22;63092;43.582;19.528;2024-02-04T07:05:59;2.80;99.90
73360;DHT22;63092;43.582;19.528;2024-02-04T07:08:25;2.80;99.90
73360;DHT22;63092;43.582;19.528;2024-02-04T07:10:51;2.80;99.90
73360;DHT22;63092;43.582;19.528;2024-02-04T07:13:17;2.90;99.90
73360;DHT22;63092;43.582;19.528;2024-02-04T07:15:43;2.90;99.90
73360;DHT22;63092;43.582;19.528;2024-02-04T07:18:09;3.00;99.90
73360;DHT22;63092;43.582;19.528;2024-02-04T07:20:35;3.10;99.90
73360;DHT22;63092;43.582;19.528;2024-02-04T07:23:01;3.10;99.90
73360;DHT22;63092;43.582;19.528;2024-02-04T07:25:27;3.20;99.90
73360;DHT22;63092;43.582;19.528;2024-02-04T07:27:53;3.20;99.90
73360;DHT22;63092;43.582;19.528;2024-02-04T07:30:20;3.30;99.90
73360;DHT22;63092;43.582;19.528;2024-02-04T07:32:46;3.30;99.90
73360;DHT22;63092;43.582;19.528;2024-02-04T07:35:12;3.40;99.90
73360;DHT22;63092;43.582;19.528;2024-02-04T07:37:38;3.50;99.90
73360;DHT22;63092;43.582;19.528;2024-02-04T07:40:05;3.50;99.90
73360;DHT22;63092;43.582;19.528;2024-02-04T07:42:31;3.50;99.90
73360;DHT22;63092;43.582;19.528;2024-02-04T07:44:57;3.60;99.90
73360;DHT22;63092;43.582;19.528;2024-02-04T07:47:23;3.60;99.90
73360;DHT22;63092;43.582;19.528;2024-02-04T07:49:49;3.70;99.90
73360;DHT22;63092;43.582;19.528;2024-02-04T07:52:15;3.80;99.90
73360;DHT22;63092;43.582;19.528;2024-02-04T07:54:41;3.80;99.90
73360;DHT22;63092;43.582;19.528;2024-02-04T07:57:09;3.90;99.90
73360;DHT22;63092;43.582;19.528;2024-02-04T07:59:34;3.90;99.90
73360;DHT22;63092;43.582;19.528;2024-02-04T08:02:01;4.00;99.90
73360;DHT22;63092;43.582;19.528;2024-02-04T08:04:26;4.10;99.90
73360;DHT22;63092;43.582;19.528;2024-02-04T08:06:53;4.10;99.90
73360;DHT22;63092;43.582;19.528;2024-02-04T08:09:19;4.20;99.90
73360;DHT22;63092;43.582;19.528;2024-02-04T08:11:45;4.30;99.90
73360;DHT22;63092;43.582;19.528;2024-02-04T08:14:10;4.20;99.90
73360;DHT22;63092;43.582;19.528;2024-02-04T08:16:36;4.20;99.90
73360;DHT22;63092;43.582;19.528;2024-02-04T08:19:02;4.20;99.90
73360;DHT22;63092;43.582;19.528;2024-02-04T08:21:27;4.20;99.90
73360;DHT22;63092;43.582;19.528;2024-02-04T08:23:56;4.30;99.90
73360;DHT22;63092;43.582;19.528;2024-02-04T08:26:22;4.40;99.90
73360;DHT22;63092;43.582;19.528;2024-02-04T08:28:50;4.40;99.90
73360;DHT22;63092;43.582;19.528;2024-02-04T08:31:16;4.50;99.90
73360;DHT22;63092;43.582;19.528;2024-02-04T08:33:42;4.60;99.90
73360;DHT22;63092;43.582;19.528;2024-02-04T08:36:08;4.70;99.90
73360;DHT22;63092;43.582;19.528;2024-02-04T08:38:36;4.70;99.90
73360;DHT22;63092;43.582;19.528;2024-02-04T08:41:03;4.80;99.90
73360;DHT22;63092;43.582;19.528;2024-02-04T08:43:29;4.90;99.90
73360;DHT22;63092;43.582;19.528;2024-02-04T08:45:54;5.00;99.90
73360;DHT22;63092;43.582;19.528;2024-02-04T08:48:20;5.10;99.90
73360;DHT22;63092;43.582;19.528;2024-02-04T08:50:46;5.20;99.90
73360;DHT22;63092;43.582;19.528;2024-02-04T08:53:12;5.20;99.90
73360;DHT22;63092;43.582;19.528;2024-02-04T08:55:38;5.30;99.90
73360;DHT22;63092;43.582;19.528;2024-02-04T08:58:03;5.30;99.90
73360;DHT22;63092;43.582;19.528;2024-02-04T09:00:29;5.40;99.90
73360;DHT22;63092;43.582;19.528;2024-02-04T09:02:55;5.70;99.90
73360;DHT22;63092;43.582;19.528;2024-02-04T09:05:21;5.90;99.90
73360;DHT22;63092;43.582;19.528;2024-02-04T09:07:47;6.10;99.90
73360;DHT22;63092;43.582;19.528;2024-02-04T09:10:13;6.30;99.90
73360;DHT22;63092;43.582;19.528;2024-02-04T09:12:39;6.40;99.90
73360;DHT22;63092;43.582;19.528;2024-02-04T09:15:05;6.60;99.90
73360;DHT22;63092;43.582;19.528;2024-02-04T09:17:31;6.60;99.90
73360;DHT22;63092;43.582;19.528;2024-02-04T09:20:00;6.70;99.90
73360;DHT22;63092;43.582;19.528;2024-02-04T09:22:26;6.70;99.90
73360;DHT22;63092;43.582;19.528;2024-02-04T09:24:52;6.70;99.90
73360;DHT22;63092;43.582;19.528;2024-02-04T09:27:18;6.80;99.90
73360;DHT22;63092;43.582;19.528;2024-02-04T09:29:43;6.70;99.90
73360;DHT22;63092;43.582;19.528;2024-02-04T09:32:09;6.70;99.90
73360;DHT22;63092;43.582;19.528;2024-02-04T09:34:35;6.70;99.90
73360;DHT22;63092;43.582;19.528;2024-02-04T09:37:00;6.70;99.90
73360;DHT22;63092;43.582;19.528;2024-02-04T09:39:28;6.80;99.90
73360;DHT22;63092;43.582;19.528;2024-02-04T09:41:55;6.80;99.90
73360;DHT22;63092;43.582;19.528;2024-02-04T09:44:23;7.00;99.90
73360;DHT22;63092;43.582;19.528;2024-02-04T09:46:48;7.00;99.90
73360;DHT22;63092;43.582;19.528;2024-02-04T09:49:14;7.10;99.90
73360;DHT22;63092;43.582;19.528;2024-02-04T09:51:41;7.00;99.90
73360;DHT22;63092;43.582;19.528;2024-02-04T09:54:10;7.20;99.90
73360;DHT22;63092;43.582;19.528;2024-02-04T09:56:37;7.30;99.90
73360;DHT22;63092;43.582;19.528;2024-02-04T09:59:04;7.50;99.90
73360;DHT22;63092;43.582;19.528;2024-02-04T10:01:33;7.50;99.90
73360;DHT22;63092;43.582;19.528;2024-02-04T10:04:01;7.40;99.80
73360;DHT22;63092;43.582;19.528;2024-02-04T10:06:26;7.50;99.90
73360;DHT22;63092;43.582;19.528;2024-02-04T10:08:52;7.50;99.90
73360;DHT22;63092;43.582;19.528;2024-02-04T10:11:18;7.60;99.90
73360;DHT22;63092;43.582;19.528;2024-02-04T10:13:48;7.60;99.50
73360;DHT22;63092;43.582;19.528;2024-02-04T10:16:16;7.70;99.90
73360;DHT22;63092;43.582;19.528;2024-02-04T10:18:45;7.80;99.20
73360;DHT22;63092;43.582;19.528;2024-02-04T10:21:18;7.90;98.80
73360;DHT22;63092;43.582;19.528;2024-02-04T10:23:45;8.10;98.30
73360;DHT22;63092;43.582;19.528;2024-02-04T10:26:11;8.20;97.90
73360;DHT22;63092;43.582;19.528;2024-02-04T10:28:38;8.30;97.40
73360;DHT22;63092;43.582;19.528;2024-02-04T10:31:04;8.40;97.00
73360;DHT22;63092;43.582;19.528;2024-02-04T10:33:30;8.50;96.60
73360;DHT22;63092;43.582;19.528;2024-02-04T10:35:57;8.50;96.10
73360;DHT22;63092;43.582;19.528;2024-02-04T10:38:23;8.60;95.60
73360;DHT22;63092;43.582;19.528;2024-02-04T10:40:53;8.70;95.30
73360;DHT22;63092;43.582;19.528;2024-02-04T10:43:20;8.80;95.20
73360;DHT22;63092;43.582;19.528;2024-02-04T10:45:47;9.00;95.10
73360;DHT22;63092;43.582;19.528;2024-02-04T10:48:15;9.00;94.60
73360;DHT22;63092;43.582;19.528;2024-02-04T10:50:47;9.20;94.50
73360;DHT22;63092;43.582;19.528;2024-02-04T10:53:17;9.30;94.10
73360;DHT22;63092;43.582;19.528;2024-02-04T10:55:46;9.40;93.80
73360;DHT22;63092;43.582;19.528;2024-02-04T10:58:13;9.60;93.40
73360;DHT22;63092;43.582;19.528;2024-02-04T11:00:42;9.70;93.20
73360;DHT22;63092;43.582;19.528;2024-02-04T11:03:08;9.80;92.60
73360;DHT22;63092;43.582;19.528;2024-02-04T11:05:36;9.90;92.60
73360;DHT22;63092;43.582;19.528;2024-02-04T11:08:03;9.90;92.40
73360;DHT22;63092;43.582;19.528;2024-02-04T11:10:30;9.90;92.60
73360;DHT22;63092;43.582;19.528;2024-02-04T11:12:58;9.80;92.60
73360;DHT22;63092;43.582;19.528;2024-02-04T11:15:29;9.80;92.50
73360;DHT22;63092;43.582;19.528;2024-02-04T11:26:12;9.80;92.30
73360;DHT22;63092;43.582;19.528;2024-02-04T11:28:38;9.90;92.30
73360;DHT22;63092;43.582;19.528;2024-02-04T11:31:05;9.90;92.20
73360;DHT22;63092;43.582;19.528;2024-02-04T11:33:38;9.90;92.30
73360;DHT22;63092;43.582;19.528;2024-02-04T11:36:05;10.00;92.10
73360;DHT22;63092;43.582;19.528;2024-02-04T11:38:36;10.10;91.80
73360;DHT22;63092;43.582;19.528;2024-02-04T11:41:06;10.20;91.60
73360;DHT22;63092;43.582;19.528;2024-02-04T11:43:36;10.30;91.30
73360;DHT22;63092;43.582;19.528;2024-02-04T11:46:03;10.40;91.20
73360;DHT22;63092;43.582;19.528;2024-02-04T11:48:30;10.50;91.20
73360;DHT22;63092;43.582;19.528;2024-02-04T11:50:59;10.60;91.10
73360;DHT22;63092;43.582;19.528;2024-02-04T11:53:29;10.70;90.90
73360;DHT22;63092;43.582;19.528;2024-02-04T11:55:58;10.80;90.70
73360;DHT22;63092;43.582;19.528;2024-02-04T11:58:27;10.80;90.40
73360;DHT22;63092;43.582;19.528;2024-02-04T12:00:53;10.90;90.20
73360;DHT22;63092;43.582;19.528;2024-02-04T12:03:30;11.00;90.00
73360;DHT22;63092;43.582;19.528;2024-02-04T12:05:56;11.10;88.80
73360;DHT22;63092;43.582;19.528;2024-02-04T12:08:23;11.10;88.20
73360;DHT22;63092;43.582;19.528;2024-02-04T12:10:49;11.20;87.80
73360;DHT22;63092;43.582;19.528;2024-02-04T12:13:15;11.30;87.80
73360;DHT22;63092;43.582;19.528;2024-02-04T12:15:42;11.30;87.10
73360;DHT22;63092;43.582;19.528;2024-02-04T12:18:10;11.30;86.70
73360;DHT22;63092;43.582;19.528;2024-02-04T12:20:37;11.40;86.70
73360;DHT22;63092;43.582;19.528;2024-02-04T12:23:07;11.40;86.80
73360;DHT22;63092;43.582;19.528;2024-02-04T12:25:34;11.50;86.50
73360;DHT22;63092;43.582;19.528;2024-02-04T12:28:01;11.60;86.10
73360;DHT22;63092;43.582;19.528;2024-02-04T12:30:32;11.70;85.40
73360;DHT22;63092;43.582;19.528;2024-02-04T12:35:24;11.80;84.50
73360;DHT22;63092;43.582;19.528;2024-02-04T12:37:53;11.90;84.10
73360;DHT22;63092;43.582;19.528;2024-02-04T12:40:30;12.00;83.30
73360;DHT22;63092;43.582;19.528;2024-02-04T12:43:00;12.00;82.60
73360;DHT22;63092;43.582;19.528;2024-02-04T12:45:30;12.10;81.70
73360;DHT22;63092;43.582;19.528;2024-02-04T12:47:57;12.10;81.50
73360;DHT22;63092;43.582;19.528;2024-02-04T12:50:24;12.20;82.00
73360;DHT22;63092;43.582;19.528;2024-02-04T12:55:28;12.50;81.50
73360;DHT22;63092;43.582;19.528;2024-02-04T12:58:07;12.60;81.30
73360;DHT22;63092;43.582;19.528;2024-02-04T13:00:34;12.60;81.00
73360;DHT22;63092;43.582;19.528;2024-02-04T13:03:00;12.70;80.60
73360;DHT22;63092;43.582;19.528;2024-02-04T13:05:26;12.70;80.80
73360;DHT22;63092;43.582;19.528;2024-02-04T13:07:56;12.80;80.60
73360;DHT22;63092;43.582;19.528;2024-02-04T13:10:25;12.80;81.20
73360;DHT22;63092;43.582;19.528;2024-02-04T13:13:00;12.80;80.60
73360;DHT22;63092;43.582;19.528;2024-02-04T13:15:30;12.80;79.90
73360;DHT22;63092;43.582;19.528;2024-02-04T13:17:56;12.90;80.50
73360;DHT22;63092;43.582;19.528;2024-02-04T13:20:23;12.90;80.10
73360;DHT22;63092;43.582;19.528;2024-02-04T13:22:49;12.90;80.00
73360;DHT22;63092;43.582;19.528;2024-02-04T13:25:15;12.90;79.50
73360;DHT22;63092;43.582;19.528;2024-02-04T13:30:08;13.00;78.50
73360;DHT22;63092;43.582;19.528;2024-02-04T13:32:41;13.10;79.20
73360;DHT22;63092;43.582;19.528;2024-02-04T13:35:07;13.10;79.30
73360;DHT22;63092;43.582;19.528;2024-02-04T13:37:54;13.20;79.30
73360;DHT22;63092;43.582;19.528;2024-02-04T13:40:21;13.30;80.60
73360;DHT22;63092;43.582;19.528;2024-02-04T13:42:49;13.30;81.70
73360;DHT22;63092;43.582;19.528;2024-02-04T13:45:16;13.30;79.20
73360;DHT22;63092;43.582;19.528;2024-02-04T13:47:42;13.30;77.70
73360;DHT22;63092;43.582;19.528;2024-02-04T13:50:12;13.40;80.10
73360;DHT22;63092;43.582;19.528;2024-02-04T13:52:38;13.40;81.60
73360;DHT22;63092;43.582;19.528;2024-02-04T13:55:05;13.40;79.90
73360;DHT22;63092;43.582;19.528;2024-02-04T13:57:32;13.30;79.50
73360;DHT22;63092;43.582;19.528;2024-02-04T13:59:58;13.30;78.30
73360;DHT22;63092;43.582;19.528;2024-02-04T14:02:24;13.30;80.20
73360;DHT22;63092;43.582;19.528;2024-02-04T14:04:52;13.30;82.20
73360;DHT22;63092;43.582;19.528;2024-02-04T14:07:18;13.40;81.00
73360;DHT22;63092;43.582;19.528;2024-02-04T14:09:44;13.30;80.90
73360;DHT22;63092;43.582;19.528;2024-02-04T14:12:09;13.30;81.20
73360;DHT22;63092;43.582;19.528;2024-02-04T14:14:37;13.30;81.40
73360;DHT22;63092;43.582;19.528;2024-02-04T14:17:03;13.30;81.80
73360;DHT22;63092;43.582;19.528;2024-02-04T14:19:29;13.30;82.50
73360;DHT22;63092;43.582;19.528;2024-02-04T14:21:54;13.30;82.80
73360;DHT22;63092;43.582;19.528;2024-02-04T14:24:20;13.30;82.70
73360;DHT22;63092;43.582;19.528;2024-02-04T14:26:46;13.20;82.80
73360;DHT22;63092;43.582;19.528;2024-02-04T14:29:12;13.20;82.00
73360;DHT22;63092;43.582;19.528;2024-02-04T14:31:37;13.20;82.20
73360;DHT22;63092;43.582;19.528;2024-02-04T14:34:03;13.20;83.00
73360;DHT22;63092;43.582;19.528;2024-02-04T14:36:29;13.10;82.20
73360;DHT22;63092;43.582;19.528;2024-02-04T14:38:55;13.00;82.40
73360;DHT22;63092;43.582;19.528;2024-02-04T14:41:23;13.00;83.40
73360;DHT22;63092;43.582;19.528;2024-02-04T14:43:49;12.90;82.40
73360;DHT22;63092;43.582;19.528;2024-02-04T14:46:15;12.80;83.30
73360;DHT22;63092;43.582;19.528;2024-02-04T14:48:40;12.60;84.60
73360;DHT22;63092;43.582;19.528;2024-02-04T14:51:06;12.50;85.20
73360;DHT22;63092;43.582;19.528;2024-02-04T14:53:32;12.40;85.50
73360;DHT22;63092;43.582;19.528;2024-02-04T14:55:57;12.20;86.50
73360;DHT22;63092;43.582;19.528;2024-02-04T14:58:23;12.10;86.70
73360;DHT22;63092;43.582;19.528;2024-02-04T15:00:49;12.00;87.30
73360;DHT22;63092;43.582;19.528;2024-02-04T15:03:16;11.90;87.80
73360;DHT22;63092;43.582;19.528;2024-02-04T15:05:41;11.90;87.90
73360;DHT22;63092;43.582;19.528;2024-02-04T15:08:07;11.90;87.90
73360;DHT22;63092;43.582;19.528;2024-02-04T15:10:33;11.90;88.40
73360;DHT22;63092;43.582;19.528;2024-02-04T15:13:00;11.90;88.40
73360;DHT22;63092;43.582;19.528;2024-02-04T15:15:26;11.90;88.60
73360;DHT22;63092;43.582;19.528;2024-02-04T15:17:52;11.90;88.70
73360;DHT22;63092;43.582;19.528;2024-02-04T15:20:18;11.90;88.90
73360;DHT22;63092;43.582;19.528;2024-02-04T15:22:48;11.90;88.40
73360;DHT22;63092;43.582;19.528;2024-02-04T15:25:15;11.80;88.60
73360;DHT22;63092;43.582;19.528;2024-02-04T15:27:43;11.80;88.60
73360;DHT22;63092;43.582;19.528;2024-02-04T15:30:14;11.80;88.70
73360;DHT22;63092;43.582;19.528;2024-02-04T15:32:40;11.80;89.10
73360;DHT22;63092;43.582;19.528;2024-02-04T15:35:06;11.80;88.90
73360;DHT22;63092;43.582;19.528;2024-02-04T15:37:32;11.70;89.40
73360;DHT22;63092;43.582;19.528;2024-02-04T15:39:58;11.70;89.50
73360;DHT22;63092;43.582;19.528;2024-02-04T15:42:24;11.60;89.90
73360;DHT22;63092;43.582;19.528;2024-02-04T15:44:49;11.60;90.00
73360;DHT22;63092;43.582;19.528;2024-02-04T15:47:16;11.60;90.10